createdAt,value
2018-10-06T00:01:56.035Z,70.87
2018-10-06T00:04:24.971Z,70.64
2018-10-06T00:06:53.805Z,70.35
2018-10-06T00:09:22.644Z,70.56
2018-10-06T00:11:51.970Z,70.37
2018-10-06T00:14:20.883Z,70.87
2018-10-06T00:16:49.733Z,71.03
2018-10-06T00:19:18.619Z,70.91
2018-10-06T00:21:47.432Z,70.82
2018-10-06T00:24:16.280Z,71.03
2018-10-06T00:26:45.151Z,71.02
2018-10-06T00:29:14.021Z,70.50
2018-10-06T00:31:46.729Z,70.44
2018-10-06T00:34:18.656Z,71.21
2018-10-06T00:36:47.522Z,71.11
2018-10-06T00:39:16.309Z,70.82
2018-10-06T00:41:45.129Z,71.25
2018-10-06T00:44:13.982Z,70.83
2018-10-06T00:46:42.763Z,71.05
2018-10-06T00:49:11.599Z,71.15
2018-10-06T00:51:40.451Z,71.52
2018-10-06T00:54:09.290Z,71.00
2018-10-06T00:56:38.101Z,71.42
2018-10-06T00:59:07.350Z,71.29
2018-10-06T01:01:36.258Z,71.41
2018-10-06T01:04:05.102Z,71.64
2018-10-06T01:06:35.438Z,71.58
2018-10-06T01:09:06.055Z,71.63
2018-10-06T01:11:34.988Z,71.51
2018-10-06T01:14:03.819Z,71.41
2018-10-06T01:16:32.729Z,71.47
2018-10-06T01:19:01.561Z,71.62
2018-10-06T01:21:30.518Z,71.37
2018-10-06T01:23:59.309Z,71.17
2018-10-06T01:26:28.354Z,70.71
2018-10-06T01:28:57.279Z,70.90
2018-10-06T01:31:26.240Z,70.78
2018-10-06T01:33:55.069Z,70.52
2018-10-06T01:36:24.171Z,69.85
2018-10-06T01:38:53.002Z,69.71
2018-10-06T01:41:22.193Z,68.97
2018-10-06T01:43:51.134Z,69.28
2018-10-06T01:46:19.990Z,69.04
2018-10-06T01:48:48.873Z,68.45
2018-10-06T01:51:17.684Z,68.30
2018-10-06T01:53:46.583Z,68.12
2018-10-06T01:56:15.408Z,67.71
2018-10-06T01:58:44.326Z,67.59
2018-10-06T02:01:13.154Z,67.65
2018-10-06T02:03:41.981Z,67.49
2018-10-06T02:06:11.161Z,67.51
2018-10-06T02:08:40.120Z,67.56
2018-10-06T02:11:08.888Z,67.50
2018-10-06T02:13:37.741Z,67.36
2018-10-06T02:16:06.655Z,67.58
2018-10-06T02:18:35.463Z,67.55
2018-10-06T02:21:04.435Z,67.59
2018-10-06T02:23:33.303Z,67.84
2018-10-06T02:26:02.166Z,67.31
2018-10-06T02:28:31.270Z,67.78
2018-10-06T02:31:00.072Z,67.62
2018-10-06T02:33:29.551Z,67.85
2018-10-06T02:35:58.480Z,67.94
2018-10-06T02:38:27.432Z,68.32
2018-10-06T02:40:56.306Z,67.72
2018-10-06T02:43:25.123Z,67.87
2018-10-06T02:45:53.964Z,67.97
2018-10-06T02:48:22.840Z,67.51
2018-10-06T02:50:51.824Z,67.52
2018-10-06T02:53:20.775Z,67.62
2018-10-06T02:55:49.752Z,67.50
2018-10-06T02:58:18.643Z,67.84
2018-10-06T03:00:48.109Z,67.55
2018-10-06T03:03:17.024Z,67.39
2018-10-06T03:05:45.837Z,67.05
2018-10-06T03:08:14.714Z,67.12
2018-10-06T03:10:43.649Z,67.20
2018-10-06T03:13:12.681Z,67.18
2018-10-06T03:15:41.652Z,66.92
2018-10-06T03:18:10.543Z,66.72
2018-10-06T03:20:39.422Z,67.30
2018-10-06T03:23:08.262Z,67.48
2018-10-06T03:25:37.161Z,67.29
2018-10-06T03:28:05.972Z,67.25
2018-10-06T03:30:34.810Z,66.96
2018-10-06T03:33:03.561Z,66.67
2018-10-06T03:35:32.318Z,66.90
2018-10-06T03:38:01.268Z,66.90
2018-10-06T03:40:30.178Z,66.70
2018-10-06T03:42:58.979Z,66.72
2018-10-06T03:45:27.769Z,67.05
2018-10-06T03:47:56.544Z,67.08
2018-10-06T03:50:25.345Z,67.17
2018-10-06T03:52:54.608Z,67.19
2018-10-06T03:55:23.612Z,67.12
2018-10-06T03:57:52.499Z,67.47
2018-10-06T04:00:21.340Z,67.10
2018-10-06T04:02:50.265Z,67.46
2018-10-06T04:05:19.062Z,67.44
2018-10-06T04:07:47.879Z,67.22
2018-10-06T04:10:16.736Z,67.75
2018-10-06T04:12:45.569Z,67.78
2018-10-06T04:15:14.530Z,67.70
2018-10-06T04:17:43.369Z,67.61
2018-10-06T04:20:12.193Z,68.07
2018-10-06T04:22:41.238Z,67.92
2018-10-06T04:25:10.035Z,67.91
2018-10-06T04:27:38.877Z,68.17
2018-10-06T04:30:08.883Z,68.04
2018-10-06T04:32:37.743Z,68.30
2018-10-06T04:35:06.682Z,68.41
2018-10-06T04:37:35.529Z,68.13
2018-10-06T04:40:04.420Z,67.90
2018-10-06T04:42:33.758Z,67.82
2018-10-06T04:45:02.721Z,67.96
2018-10-06T04:47:31.503Z,68.04
2018-10-06T04:50:00.412Z,68.01
2018-10-06T04:52:29.235Z,68.12
2018-10-06T04:54:58.059Z,67.84
2018-10-06T04:57:26.979Z,67.81
2018-10-06T04:59:56.659Z,67.57
2018-10-06T05:02:25.485Z,67.62
2018-10-06T05:04:54.348Z,67.72
2018-10-06T05:07:23.225Z,67.61
2018-10-06T05:09:52.031Z,67.46
2018-10-06T05:12:20.912Z,67.47
2018-10-06T05:14:49.741Z,67.51
2018-10-06T05:17:18.547Z,67.14
2018-10-06T05:19:47.420Z,67.66
2018-10-06T05:22:16.274Z,67.25
2018-10-06T05:24:45.155Z,67.45
2018-10-06T05:27:13.999Z,67.61
2018-10-06T05:29:44.747Z,67.81
2018-10-06T05:32:13.489Z,67.25
2018-10-06T05:34:42.364Z,67.10
2018-10-06T05:37:11.583Z,66.94
2018-10-06T05:39:40.421Z,66.81
2018-10-06T05:42:09.296Z,66.75
2018-10-06T05:44:38.462Z,66.61
2018-10-06T05:47:07.451Z,66.62
2018-10-06T05:49:36.606Z,66.59
2018-10-06T05:52:06.198Z,66.50
2018-10-06T05:54:35.012Z,66.40
2018-10-06T05:57:03.891Z,66.33
2018-10-06T05:59:32.732Z,65.90
2018-10-06T06:02:01.571Z,65.82
2018-10-06T06:04:30.384Z,65.59
2018-10-06T06:06:59.617Z,65.18
2018-10-06T06:09:28.398Z,65.17
2018-10-06T06:11:57.252Z,64.47
2018-10-06T06:14:26.050Z,64.45
2018-10-06T06:16:55.070Z,64.88
2018-10-06T06:19:23.900Z,64.05
2018-10-06T06:21:52.876Z,63.65
2018-10-06T06:24:21.782Z,62.98
2018-10-06T06:26:50.746Z,62.32
2018-10-06T06:29:19.615Z,61.52
2018-10-06T06:31:48.860Z,60.36
2018-10-06T06:34:17.882Z,60.45
2018-10-06T06:36:46.801Z,59.30
2018-10-06T06:39:15.797Z,58.04
2018-10-06T06:41:44.909Z,57.09
2018-10-06T06:44:13.939Z,57.38
2018-10-06T06:46:43.428Z,57.68
2018-10-06T06:49:12.303Z,58.70
2018-10-06T06:51:41.199Z,58.96
2018-10-06T06:54:10.016Z,58.32
2018-10-06T06:56:39.007Z,58.01
2018-10-06T06:59:07.962Z,57.15
2018-10-06T07:01:36.896Z,56.48
2018-10-06T07:04:12.367Z,55.55
2018-10-06T07:06:49.667Z,55.33
2018-10-06T07:09:18.721Z,54.52
2018-10-06T07:11:47.633Z,52.81
2018-10-06T07:14:16.711Z,52.18
2018-10-06T07:16:45.689Z,52.28
2018-10-06T07:19:14.551Z,52.23
2018-10-06T07:21:43.509Z,51.23
2018-10-06T07:24:15.522Z,51.37
2018-10-06T07:26:44.380Z,51.65
2018-10-06T07:29:13.315Z,50.41
2018-10-06T07:31:42.155Z,49.58
2018-10-06T07:34:10.976Z,48.47
2018-10-06T07:36:40.003Z,47.67
2018-10-06T07:39:08.963Z,46.54
2018-10-06T07:41:37.972Z,46.63
2018-10-06T07:44:06.767Z,45.61
2018-10-06T07:46:35.638Z,44.91
2018-10-06T07:49:04.489Z,43.48
2018-10-06T07:51:33.397Z,42.45
2018-10-06T07:54:02.254Z,43.34
2018-10-06T07:56:31.210Z,43.60
2018-10-06T07:59:00.066Z,43.77
2018-10-06T08:01:31.353Z,42.29
2018-10-06T08:04:01.142Z,41.44
2018-10-06T08:06:30.061Z,39.31
2018-10-06T08:08:58.799Z,39.16
2018-10-06T08:11:27.705Z,37.54
2018-10-06T08:13:56.517Z,37.25
2018-10-06T08:16:25.714Z,38.34
2018-10-06T08:18:54.580Z,39.21
2018-10-06T08:21:23.435Z,38.77
2018-10-06T08:23:54.866Z,40.57
2018-10-06T08:26:25.077Z,41.53
2018-10-06T08:28:54.484Z,42.02
2018-10-06T08:31:25.708Z,41.85
2018-10-06T08:33:56.572Z,40.14
2018-10-06T08:36:26.009Z,40.66
2018-10-06T08:38:56.566Z,41.24
2018-10-06T08:41:27.399Z,42.68
2018-10-06T08:43:57.604Z,42.82
2018-10-06T08:46:28.080Z,43.94
2018-10-06T08:48:58.886Z,43.60
2018-10-06T08:51:30.502Z,43.82
2018-10-06T08:53:59.417Z,42.87
2018-10-06T08:56:28.272Z,42.96
2018-10-06T08:58:57.289Z,43.46
2018-10-06T09:01:26.187Z,41.97
2018-10-06T09:03:59.387Z,40.99
2018-10-06T09:06:30.847Z,41.88
2018-10-06T09:09:01.152Z,40.93
2018-10-06T09:11:37.512Z,41.42
2018-10-06T09:14:06.459Z,41.74
2018-10-06T09:16:35.415Z,40.79
2018-10-06T09:19:04.847Z,41.55
2018-10-06T09:21:34.902Z,41.41
2018-10-06T09:24:07.922Z,41.47
2018-10-06T09:26:42.715Z,41.22
2018-10-06T09:29:12.555Z,42.21
2018-10-06T09:31:41.924Z,41.83
2018-10-06T09:34:12.769Z,40.82
2018-10-06T09:36:41.842Z,39.64
2018-10-06T09:39:11.759Z,38.15
2018-10-06T09:41:40.635Z,37.41
2018-10-06T09:44:10.592Z,37.79
2018-10-06T09:46:40.117Z,37.73
2018-10-06T09:51:56.798Z,36.12
2018-10-06T09:54:26.046Z,35.36
2018-10-06T09:56:55.438Z,35.31
2018-10-06T09:59:28.067Z,35.17
2018-10-06T10:02:04.045Z,35.33
2018-10-06T10:04:34.781Z,34.31
2018-10-06T10:07:05.071Z,34.09
2018-10-06T10:09:35.485Z,33.34
2018-10-06T10:12:05.479Z,34.07
2018-10-06T10:14:35.232Z,34.27
2018-10-06T10:17:05.815Z,34.60
2018-10-06T10:19:35.218Z,34.17
2018-10-06T10:22:04.485Z,35.47
2018-10-06T10:24:33.987Z,35.22
2018-10-06T10:27:02.923Z,34.45
2018-10-06T10:29:35.859Z,34.83
2018-10-06T10:32:04.815Z,34.65
2018-10-06T10:34:35.613Z,34.62
2018-10-06T10:37:04.883Z,33.21
2018-10-06T10:39:34.394Z,33.05
2018-10-06T10:42:03.887Z,32.85
2018-10-06T10:44:32.790Z,33.75
2018-10-06T10:47:02.255Z,33.43
2018-10-06T10:49:31.629Z,33.88
2018-10-06T10:52:00.978Z,31.96
2018-10-06T10:54:31.044Z,31.49
2018-10-06T10:57:00.023Z,31.91
2018-10-06T10:59:29.186Z,31.65
2018-10-06T11:01:57.882Z,31.00
2018-10-06T11:04:27.219Z,31.09
2018-10-06T11:06:56.606Z,30.99
2018-10-06T11:09:26.024Z,31.14
2018-10-06T11:11:55.136Z,30.39
2018-10-06T11:14:24.424Z,28.58
2018-10-06T11:16:53.208Z,29.00
2018-10-06T11:19:21.972Z,29.38
2018-10-06T11:21:50.864Z,29.52
2018-10-06T11:24:20.018Z,29.43
2018-10-06T11:26:50.357Z,29.82
2018-10-06T11:29:20.287Z,30.25
2018-10-06T11:31:49.151Z,31.13
2018-10-06T11:34:18.017Z,32.19
2018-10-06T11:36:46.865Z,32.71
2018-10-06T11:39:15.700Z,34.31
2018-10-06T11:41:44.547Z,33.48
2018-10-06T11:44:13.342Z,34.46
2018-10-06T11:46:42.247Z,34.73
2018-10-06T11:49:11.147Z,33.55
2018-10-06T11:51:40.181Z,33.74
2018-10-06T11:54:08.985Z,34.29
2018-10-06T11:56:37.842Z,34.20
2018-10-06T11:59:08.709Z,33.02
2018-10-06T12:01:39.065Z,31.85
2018-10-06T12:04:08.431Z,32.97
2018-10-06T12:06:37.177Z,33.50
2018-10-06T12:09:08.983Z,33.03
2018-10-06T12:11:38.282Z,33.14
2018-10-06T12:14:07.758Z,33.01
2018-10-06T12:16:39.678Z,31.98
2018-10-06T12:19:08.475Z,31.29
2018-10-06T12:21:37.628Z,30.65
2018-10-06T12:24:07.805Z,29.86
2018-10-06T12:26:36.691Z,29.27
2018-10-06T12:29:06.803Z,30.01
2018-10-06T12:31:37.832Z,30.02
2018-10-06T12:34:06.726Z,30.15
2018-10-06T12:36:35.507Z,29.59
2018-10-06T12:39:05.529Z,28.40
2018-10-06T12:41:34.319Z,29.42
2018-10-06T12:44:03.336Z,29.71
2018-10-06T12:46:37.791Z,29.90
2018-10-06T12:49:07.721Z,29.78
2018-10-06T12:51:36.525Z,28.99
2018-10-06T12:54:05.133Z,29.43
2018-10-06T12:56:37.099Z,28.73
2018-10-06T12:59:08.194Z,29.18
2018-10-06T13:04:27.416Z,29.39
2018-10-06T13:06:56.057Z,29.71
2018-10-06T13:09:28.775Z,30.44
2018-10-06T13:11:57.462Z,30.41
2018-10-06T13:14:26.796Z,31.00
2018-10-06T13:16:55.415Z,31.35
2018-10-06T13:19:25.253Z,31.61
2018-10-06T13:21:55.504Z,31.61
2018-10-06T13:24:24.386Z,31.76
2018-10-06T13:26:53.423Z,32.14
2018-10-06T13:29:22.230Z,32.60
2018-10-06T13:31:51.486Z,32.95
2018-10-06T13:34:20.312Z,32.44
2018-10-06T13:36:49.834Z,32.89
2018-10-06T13:39:19.737Z,34.20
2018-10-06T13:41:48.695Z,33.96
2018-10-06T13:44:17.979Z,34.64
2018-10-06T13:46:47.946Z,34.77
2018-10-06T13:49:18.084Z,34.52
2018-10-06T13:51:47.710Z,35.12
2018-10-06T13:54:17.726Z,34.51
2018-10-06T13:56:47.019Z,34.20
2018-10-06T13:59:16.546Z,34.54
2018-10-06T14:01:46.539Z,34.91
2018-10-06T14:04:16.461Z,34.66
2018-10-06T14:06:45.860Z,34.51
2018-10-06T14:09:15.210Z,34.87
2018-10-06T14:11:45.067Z,34.65
2018-10-06T14:14:15.548Z,33.87
2018-10-06T14:16:45.115Z,33.88
2018-10-06T14:19:14.311Z,33.74
2018-10-06T14:21:43.815Z,34.09
2018-10-06T14:24:17.789Z,33.37
2018-10-06T14:26:47.240Z,33.41
2018-10-06T14:29:18.530Z,33.49
2018-10-06T14:31:47.475Z,32.70
2018-10-06T14:34:16.506Z,33.65
2018-10-06T14:36:45.619Z,33.36
2018-10-06T14:39:14.853Z,33.23
2018-10-06T14:41:46.034Z,32.54
2018-10-06T14:44:18.551Z,32.16
2018-10-06T14:46:47.646Z,32.17
2018-10-06T14:49:16.394Z,32.47
2018-10-06T14:51:50.784Z,33.27
2018-10-06T14:54:19.549Z,33.90
2018-10-06T14:56:49.376Z,33.03
2018-10-06T14:59:18.322Z,33.99
2018-10-06T15:01:49.044Z,33.69
2018-10-06T15:04:18.047Z,34.09
2018-10-06T15:06:47.500Z,35.18
2018-10-06T15:09:16.379Z,34.50
2018-10-06T15:11:45.654Z,35.30
2018-10-06T15:14:14.620Z,35.31
2018-10-06T15:16:43.835Z,36.09
2018-10-06T15:19:13.105Z,36.29
2018-10-06T15:21:42.020Z,36.69
2018-10-06T15:24:11.207Z,37.69
2018-10-06T15:26:40.323Z,38.00
2018-10-06T15:29:09.411Z,38.03
2018-10-06T15:31:38.386Z,39.00
2018-10-06T15:34:07.364Z,38.78
2018-10-06T15:36:36.285Z,39.57
2018-10-06T15:39:07.100Z,39.80
2018-10-06T15:41:38.068Z,40.16
2018-10-06T15:44:08.122Z,39.72
2018-10-06T15:46:39.863Z,40.02
2018-10-06T15:49:09.770Z,41.05
2018-10-06T15:51:47.473Z,40.88
2018-10-06T15:54:19.846Z,41.61
2018-10-06T15:56:51.472Z,41.48
2018-10-06T15:59:24.044Z,40.96
2018-10-06T16:01:52.861Z,41.68
2018-10-06T16:04:23.933Z,42.22
2018-10-06T16:06:53.670Z,42.37
2018-10-06T16:09:23.475Z,43.27
2018-10-06T16:11:55.567Z,43.14
2018-10-06T16:14:25.958Z,45.01
2018-10-06T16:16:59.158Z,44.41
2018-10-06T16:19:29.477Z,45.06
2018-10-06T16:22:01.604Z,46.14
2018-10-06T16:24:35.637Z,45.53
2018-10-06T16:27:05.082Z,46.42
2018-10-06T16:29:34.457Z,46.44
2018-10-06T16:32:05.792Z,46.51
2018-10-06T16:34:35.503Z,45.79
2018-10-06T16:37:12.860Z,47.09
2018-10-06T16:39:42.034Z,47.32
2018-10-06T16:42:11.293Z,47.39
2018-10-06T16:44:40.700Z,49.36
2018-10-06T16:47:10.342Z,48.94
2018-10-06T16:49:39.235Z,49.04
2018-10-06T16:54:58.585Z,49.43
2018-10-06T16:57:27.499Z,49.40
2018-10-06T16:59:56.507Z,49.74
2018-10-06T17:02:25.371Z,49.54
2018-10-06T17:04:54.355Z,50.75
2018-10-06T17:07:23.376Z,50.18
2018-10-06T17:09:53.038Z,51.01
2018-10-06T17:12:23.640Z,51.63
2018-10-06T17:14:53.245Z,51.93
2018-10-06T17:17:23.401Z,52.25
2018-10-06T17:19:52.368Z,51.84
2018-10-06T17:22:21.700Z,52.64
2018-10-06T17:24:51.025Z,52.15
2018-10-06T17:27:19.892Z,51.75
2018-10-06T17:29:49.031Z,50.51
2018-10-06T17:32:17.963Z,52.36
2018-10-06T17:34:50.271Z,53.91
2018-10-06T17:37:20.184Z,53.90
2018-10-06T17:39:49.486Z,52.83
2018-10-06T17:42:18.967Z,53.96
2018-10-06T17:44:48.383Z,54.28
2018-10-06T17:47:18.037Z,54.23
2018-10-06T17:49:50.068Z,54.01
2018-10-06T17:52:19.207Z,54.10
2018-10-06T17:54:50.291Z,53.41
2018-10-06T17:57:19.193Z,53.84
2018-10-06T17:59:48.006Z,54.19
2018-10-06T18:02:16.910Z,54.21
2018-10-06T18:04:45.938Z,53.63
2018-10-06T18:07:14.763Z,54.33
2018-10-06T18:09:43.752Z,54.98
2018-10-06T18:12:12.854Z,55.40
2018-10-06T18:14:44.548Z,55.75
2018-10-06T18:17:13.642Z,56.30
2018-10-06T18:19:43.267Z,56.60
2018-10-06T18:22:12.339Z,56.59
2018-10-06T18:24:41.498Z,56.26
2018-10-06T18:27:11.071Z,56.16
2018-10-06T18:29:40.168Z,57.31
2018-10-06T18:32:09.083Z,57.93
2018-10-06T18:34:38.408Z,57.64
2018-10-06T18:37:07.267Z,57.92
2018-10-06T18:39:36.406Z,58.24
2018-10-06T18:42:14.167Z,58.36
2018-10-06T18:44:48.119Z,57.02
2018-10-06T18:47:19.264Z,56.83
2018-10-06T18:50:05.495Z,57.48
2018-10-06T18:58:15.247Z,57.84
2018-10-06T19:00:45.078Z,57.80
2018-10-06T19:03:19.928Z,57.94
2018-10-06T19:05:50.736Z,57.95
2018-10-06T19:08:20.289Z,57.58
2018-10-06T19:10:57.714Z,57.35
2018-10-06T19:13:27.888Z,57.25
2018-10-06T19:15:56.745Z,57.32
2018-10-06T19:18:26.893Z,57.83
2018-10-06T19:20:56.404Z,57.34
2018-10-06T19:23:26.148Z,57.47
2018-10-06T19:26:15.307Z,58.32
2018-10-06T19:28:45.622Z,58.03
2018-10-06T19:31:15.023Z,58.21
2018-10-06T19:33:45.129Z,58.57
2018-10-06T19:36:14.740Z,58.34
2018-10-06T19:38:45.608Z,59.06
2018-10-06T19:41:14.673Z,58.55
2018-10-06T19:43:43.507Z,58.89
2018-10-06T19:46:12.436Z,59.18
2018-10-06T19:48:41.436Z,58.72
2018-10-06T19:51:10.250Z,58.42
2018-10-06T19:53:39.344Z,58.91
2018-10-06T19:56:09.976Z,58.33
2018-10-06T19:58:39.200Z,57.95
2018-10-06T20:01:08.058Z,58.52
2018-10-06T20:03:36.886Z,58.91
2018-10-06T20:06:05.744Z,58.44
2018-10-06T20:08:42.266Z,58.67
2018-10-06T20:17:03.210Z,58.40
2018-10-06T20:19:43.427Z,57.94
2018-10-06T20:22:16.862Z,57.79
2018-10-06T20:27:58.708Z,57.28
2018-10-06T20:30:51.625Z,56.96
2018-10-06T20:33:48.715Z,57.13
2018-10-06T20:36:35.030Z,56.41
2018-10-06T20:39:21.298Z,56.07
2018-10-06T20:42:18.612Z,55.56
2018-10-06T20:45:07.518Z,55.21
2018-10-06T20:47:42.504Z,55.49
2018-10-06T20:50:14.073Z,54.97
2018-10-06T20:52:43.041Z,54.96
2018-10-06T20:55:12.818Z,54.81
2018-10-06T20:57:41.665Z,54.31
2018-10-06T21:00:12.404Z,53.94
2018-10-06T21:02:43.181Z,54.02
2018-10-06T21:05:15.224Z,53.48
2018-10-06T21:07:47.680Z,54.21
2018-10-06T21:10:16.601Z,53.79
2018-10-06T21:12:45.504Z,54.89
2018-10-06T21:15:16.251Z,53.93
2018-10-06T21:17:45.313Z,54.43
2018-10-06T21:20:14.807Z,54.57
2018-10-06T21:22:44.339Z,55.08
2018-10-06T21:25:17.638Z,54.79
2018-10-06T21:27:48.675Z,55.29
2018-10-06T21:30:19.103Z,55.78
2018-10-06T21:32:48.359Z,55.85
2018-10-06T21:35:18.060Z,56.31
2018-10-06T21:37:47.979Z,56.25
2018-10-06T21:40:18.959Z,56.29
2018-10-06T21:42:47.814Z,56.49
2018-10-06T21:45:16.648Z,56.21
2018-10-06T21:47:45.427Z,56.60
2018-10-06T21:50:14.208Z,56.93
2018-10-06T21:52:43.046Z,56.68
2018-10-06T21:55:11.881Z,56.97
2018-10-06T21:57:40.603Z,57.19
2018-10-06T22:00:09.540Z,57.55
2018-10-06T22:02:38.382Z,57.69
2018-10-06T22:05:07.795Z,58.17
2018-10-06T22:07:36.950Z,58.34
2018-10-06T22:10:08.847Z,57.87
2018-10-06T22:12:38.039Z,58.26
2018-10-06T22:15:08.163Z,58.02
2018-10-06T22:17:37.087Z,59.15
2018-10-06T22:20:09.413Z,58.70
2018-10-06T22:22:38.391Z,58.88
2018-10-06T22:25:07.831Z,59.54
2018-10-06T22:27:42.428Z,59.78
2018-10-06T22:30:12.728Z,59.84
2018-10-06T22:32:41.946Z,59.67
2018-10-06T22:35:11.043Z,59.69
2018-10-06T22:37:40.227Z,59.94
2018-10-06T22:40:09.541Z,60.32
2018-10-06T22:42:39.471Z,60.77
2018-10-06T22:45:09.429Z,60.57
2018-10-06T22:47:41.543Z,60.95
2018-10-06T22:50:10.572Z,61.12
2018-10-06T22:52:39.902Z,61.33
2018-10-06T22:55:09.031Z,61.59
2018-10-06T22:57:39.555Z,62.17
2018-10-06T23:00:08.417Z,61.68
2018-10-06T23:02:38.571Z,61.91
2018-10-06T23:05:07.392Z,61.89
2018-10-06T23:07:37.597Z,62.31
2018-10-06T23:10:07.038Z,61.79
2018-10-06T23:12:35.854Z,62.13
2018-10-06T23:15:04.763Z,62.18
2018-10-06T23:17:33.675Z,63.00
2018-10-06T23:20:02.648Z,62.71
2018-10-06T23:22:32.533Z,62.87
2018-10-06T23:25:02.355Z,62.81
2018-10-06T23:27:33.328Z,62.93
2018-10-06T23:30:02.261Z,63.46
2018-10-06T23:32:31.169Z,64.04
2018-10-06T23:35:01.011Z,64.00
2018-10-06T23:37:30.101Z,64.08
2018-10-06T23:40:00.834Z,64.56
2018-10-06T23:42:29.705Z,65.34
2018-10-06T23:44:58.580Z,65.42
2018-10-06T23:47:27.382Z,65.17
2018-10-06T23:49:56.418Z,65.91
2018-10-06T23:52:25.268Z,66.35
2018-10-06T23:54:54.158Z,66.17
2018-10-06T23:57:23.038Z,66.43
2018-10-06T23:59:51.836Z,66.89
